createdAt,value
2023-05-02T00:00:38.545Z,87.10
2023-05-02T00:03:09.298Z,86.92
2023-05-02T00:05:39.551Z,88.40
2023-05-02T00:08:10.339Z,88.38
2023-05-02T00:10:40.885Z,87.67
2023-05-02T00:13:11.764Z,87.80
2023-05-02T00:15:41.953Z,88.56
2023-05-02T00:18:12.196Z,88.46
2023-05-02T00:20:42.845Z,88.71
2023-05-02T00:23:13.577Z,90.43
2023-05-02T00:25:44.002Z,90.24
2023-05-02T00:28:14.446Z,89.93
2023-05-02T00:30:44.557Z,89.10
2023-05-02T00:33:14.788Z,88.90
2023-05-02T00:35:45.252Z,88.54
2023-05-02T00:38:16.144Z,88.53
2023-05-02T00:40:46.766Z,89.45
2023-05-02T00:43:17.527Z,89.50
2023-05-02T00:45:48.197Z,88.91
2023-05-02T00:48:18.523Z,88.73
2023-05-02T00:50:48.621Z,89.90
2023-05-02T00:53:18.801Z,90.08
2023-05-02T00:55:49.417Z,89.75
2023-05-02T00:58:20.094Z,90.41
2023-05-02T01:00:50.879Z,90.10
2023-05-02T01:03:21.812Z,91.52
2023-05-02T01:05:52.535Z,90.50
2023-05-02T01:08:22.917Z,91.14
2023-05-02T01:10:53.246Z,89.26
2023-05-02T01:13:23.240Z,89.83
2023-05-02T01:15:53.571Z,90.49
2023-05-02T01:18:23.711Z,91.57
2023-05-02T01:20:54.218Z,91.13
2023-05-02T01:23:24.828Z,91.44
2023-05-02T01:25:55.166Z,91.71
2023-05-02T01:28:25.324Z,93.05
2023-05-02T01:30:55.398Z,94.98
2023-05-02T01:33:25.393Z,96.60
2023-05-02T01:35:55.893Z,98.48
2023-05-02T01:38:26.239Z,98.50
2023-05-02T01:40:56.683Z,99.86
2023-05-02T01:43:27.547Z,100.00
2023-05-02T01:45:57.651Z,100.00
2023-05-02T01:48:28.401Z,100.00
2023-05-02T01:50:58.991Z,100.00
2023-05-02T01:53:29.391Z,100.00
2023-05-02T01:55:59.965Z,100.00
2023-05-02T01:58:30.210Z,100.00
2023-05-02T02:01:00.773Z,100.00
2023-05-02T02:03:31.323Z,100.00
2023-05-02T02:06:01.860Z,100.00
2023-05-02T02:08:32.394Z,100.00
2023-05-02T02:11:02.976Z,100.00
2023-05-02T02:13:33.531Z,100.00
2023-05-02T02:16:04.149Z,100.00
2023-05-02T02:18:34.651Z,100.00
2023-05-02T02:21:05.262Z,100.00
2023-05-02T02:23:35.810Z,100.00
2023-05-02T02:26:06.404Z,100.00
2023-05-02T02:28:36.976Z,100.00
2023-05-02T02:31:07.657Z,100.00
2023-05-02T02:33:38.248Z,100.00
2023-05-02T02:36:08.765Z,100.00
2023-05-02T02:38:39.326Z,100.00
2023-05-02T02:41:09.907Z,100.00
2023-05-02T02:43:40.488Z,100.00
2023-05-02T02:46:11.247Z,100.00
2023-05-02T02:48:41.642Z,100.00
2023-05-02T02:51:12.252Z,100.00
2023-05-02T02:53:42.810Z,99.59
2023-05-02T02:56:13.404Z,99.83
2023-05-02T02:58:44.051Z,98.57
2023-05-02T03:01:14.622Z,98.61
2023-05-02T03:03:45.233Z,98.48
2023-05-02T03:06:15.759Z,98.17
2023-05-02T03:08:46.323Z,98.27
2023-05-02T03:11:16.893Z,97.88
2023-05-02T03:13:47.461Z,97.95
2023-05-02T03:16:18.153Z,98.13
2023-05-02T03:18:48.629Z,97.33
2023-05-02T03:21:19.216Z,96.93
2023-05-02T03:23:49.858Z,96.43
2023-05-02T03:26:20.379Z,95.99
2023-05-02T03:28:50.951Z,96.68
2023-05-02T03:31:21.920Z,96.23
2023-05-02T03:33:52.107Z,96.97
2023-05-02T03:36:22.706Z,96.05
2023-05-02T03:38:52.958Z,95.81
2023-05-02T03:41:23.543Z,95.86
2023-05-02T03:43:54.161Z,96.92
2023-05-02T03:46:24.613Z,98.11
2023-05-02T03:48:54.971Z,99.48
2023-05-02T03:51:25.562Z,100.00
2023-05-02T03:53:56.220Z,100.00
2023-05-02T03:56:26.760Z,100.00
2023-05-02T03:58:57.377Z,100.00
2023-05-02T04:01:28.047Z,100.00
2023-05-02T04:03:58.834Z,100.00
2023-05-02T04:06:29.502Z,100.00
2023-05-02T04:08:59.830Z,100.00
2023-05-02T04:11:29.968Z,100.00
2023-05-02T04:14:00.728Z,100.00
2023-05-02T04:16:31.444Z,100.00
2023-05-02T04:19:02.036Z,100.00
2023-05-02T04:21:32.649Z,100.00
2023-05-02T04:24:02.740Z,100.00
2023-05-02T04:26:33.241Z,100.00
2023-05-02T04:29:03.906Z,100.00
2023-05-02T04:31:34.825Z,100.00
2023-05-02T04:34:05.246Z,100.00
2023-05-02T04:36:35.941Z,100.00
2023-05-02T04:39:06.621Z,100.00
2023-05-02T04:41:37.052Z,100.00
2023-05-02T04:44:07.840Z,100.00
2023-05-02T04:46:38.290Z,100.00
2023-05-02T04:49:08.875Z,100.00
2023-05-02T04:51:39.191Z,100.00
2023-05-02T04:54:09.645Z,100.00
2023-05-02T04:56:40.293Z,100.00
2023-05-02T04:59:10.978Z,100.00
2023-05-02T05:01:41.749Z,100.00
2023-05-02T05:04:12.524Z,100.00
2023-05-02T05:06:43.146Z,100.00
2023-05-02T05:09:13.723Z,100.00
2023-05-02T05:11:43.794Z,100.00
2023-05-02T05:14:14.187Z,100.00
2023-05-02T05:16:44.733Z,100.00
2023-05-02T05:19:15.235Z,100.00
2023-05-02T05:21:45.921Z,100.00
2023-05-02T05:24:16.579Z,100.00
2023-05-02T05:26:46.914Z,99.77
2023-05-02T05:29:17.577Z,99.22
2023-05-02T05:31:48.104Z,99.68
2023-05-02T05:34:18.780Z,97.68
2023-05-02T05:36:49.340Z,97.19
2023-05-02T05:39:20.017Z,96.09
2023-05-02T05:41:50.698Z,96.59
2023-05-02T05:44:21.464Z,96.86
2023-05-02T05:46:51.847Z,97.52
2023-05-02T05:49:22.519Z,96.04
2023-05-02T05:51:53.124Z,95.73
2023-05-02T05:54:23.784Z,96.18
2023-05-02T05:56:54.489Z,96.55
2023-05-02T05:59:25.155Z,95.06
2023-05-02T06:01:55.874Z,94.38
2023-05-02T06:04:26.563Z,94.06
2023-05-02T06:06:57.273Z,93.95
2023-05-02T06:09:27.857Z,93.76
2023-05-02T06:11:58.543Z,93.42
2023-05-02T06:14:29.202Z,93.31
2023-05-02T06:16:59.556Z,92.94
2023-05-02T06:19:30.205Z,92.96
2023-05-02T06:22:00.911Z,92.63
2023-05-02T06:24:31.568Z,89.83
2023-05-02T06:27:02.198Z,90.81
2023-05-02T06:29:32.859Z,89.81
2023-05-02T06:32:03.670Z,90.70
2023-05-02T06:34:34.172Z,89.42
2023-05-02T06:37:04.838Z,90.14
2023-05-02T06:39:35.488Z,86.32
2023-05-02T06:42:06.161Z,85.88
2023-05-02T06:44:36.813Z,85.63
2023-05-02T06:47:07.625Z,86.06
2023-05-02T06:49:38.162Z,87.13
2023-05-02T06:52:08.830Z,87.07
2023-05-02T06:54:39.484Z,84.78
2023-05-02T06:57:10.123Z,84.27
2023-05-02T06:59:40.766Z,83.87
2023-05-02T07:02:11.473Z,85.14
2023-05-02T07:04:42.175Z,84.67
2023-05-02T07:07:12.457Z,83.38
2023-05-02T07:09:43.151Z,83.44
2023-05-02T07:12:13.816Z,83.24
2023-05-02T07:14:44.476Z,83.81
2023-05-02T07:17:15.163Z,83.26
2023-05-02T07:19:45.955Z,82.60
2023-05-02T07:22:16.540Z,82.42
2023-05-02T07:24:47.245Z,81.76
2023-05-02T07:27:17.878Z,82.17
2023-05-02T07:29:48.536Z,81.85
2023-05-02T07:32:19.306Z,78.78
2023-05-02T07:34:49.890Z,79.66
2023-05-02T07:37:20.613Z,80.14
2023-05-02T07:39:51.253Z,78.68
2023-05-02T07:42:21.942Z,77.93
2023-05-02T07:44:52.605Z,77.31
2023-05-02T07:47:23.362Z,77.23
2023-05-02T07:49:53.961Z,76.58
2023-05-02T07:52:24.650Z,75.95
2023-05-02T07:54:55.335Z,73.72
2023-05-02T07:57:25.996Z,73.37
2023-05-02T07:59:56.649Z,72.54
2023-05-02T08:02:27.657Z,70.76
2023-05-02T08:04:58.048Z,71.97
2023-05-02T08:07:28.425Z,71.92
2023-05-02T08:09:59.508Z,72.53
2023-05-02T08:12:29.771Z,71.63
2023-05-02T08:15:00.094Z,72.84
2023-05-02T08:17:30.803Z,71.44
2023-05-02T08:20:01.858Z,71.00
2023-05-02T08:22:32.066Z,71.45
2023-05-02T08:25:02.730Z,71.27
2023-05-02T08:27:33.341Z,71.53
2023-05-02T08:30:04.133Z,69.00
2023-05-02T08:32:34.774Z,69.05
2023-05-02T08:35:05.227Z,69.83
2023-05-02T08:37:35.868Z,68.37
2023-05-02T08:40:06.616Z,68.99
2023-05-02T08:42:37.178Z,69.70
2023-05-02T08:45:07.809Z,69.61
2023-05-02T08:47:38.528Z,68.43
2023-05-02T08:50:09.147Z,68.33
2023-05-02T08:52:39.984Z,68.77
2023-05-02T08:55:10.383Z,66.80
2023-05-02T08:57:41.028Z,65.89
2023-05-02T09:00:11.771Z,66.34
2023-05-02T09:02:42.748Z,66.65
2023-05-02T09:05:13.054Z,66.47
2023-05-02T09:07:43.696Z,64.26
2023-05-02T09:10:14.327Z,65.52
2023-05-02T09:12:44.989Z,66.22
2023-05-02T09:15:17.006Z,66.20
2023-05-02T09:17:46.114Z,66.68
2023-05-02T09:20:16.571Z,65.42
2023-05-02T09:22:47.192Z,66.27
2023-05-02T09:25:17.871Z,65.20
2023-05-02T09:27:48.399Z,65.50
2023-05-02T09:30:19.100Z,67.72
2023-05-02T09:32:49.649Z,64.94
2023-05-02T09:35:20.306Z,64.95
2023-05-02T09:37:50.845Z,64.85
2023-05-02T09:40:21.128Z,65.50
2023-05-02T09:42:51.751Z,64.65
2023-05-02T09:45:22.353Z,65.25
2023-05-02T09:47:53.035Z,63.60
2023-05-02T09:50:23.607Z,63.98
2023-05-02T09:52:54.224Z,64.20
2023-05-02T09:55:24.826Z,63.92
2023-05-02T09:57:55.378Z,64.55
2023-05-02T10:00:25.974Z,63.66
2023-05-02T10:02:56.658Z,62.80
2023-05-02T10:05:27.186Z,62.11
2023-05-02T10:07:57.819Z,62.63
2023-05-02T10:10:28.698Z,63.15
2023-05-02T10:12:58.972Z,63.85
2023-05-02T10:15:29.555Z,62.07
2023-05-02T10:18:00.236Z,62.56
2023-05-02T10:20:30.451Z,62.52
2023-05-02T10:23:01.014Z,63.60
2023-05-02T10:25:31.304Z,65.21
2023-05-02T10:28:01.907Z,63.01
2023-05-02T10:30:32.463Z,64.10
2023-05-02T10:33:02.844Z,64.02
2023-05-02T10:35:33.429Z,65.06
2023-05-02T10:38:04.127Z,63.53
2023-05-02T10:40:34.603Z,62.62
2023-05-02T10:43:05.224Z,63.38
2023-05-02T10:45:35.761Z,63.35
2023-05-02T10:48:06.197Z,64.95
2023-05-02T10:50:36.581Z,64.43
2023-05-02T10:53:07.340Z,63.51
2023-05-02T10:55:37.762Z,64.22
2023-05-02T10:58:08.376Z,64.04
2023-05-02T11:00:39.000Z,62.80
2023-05-02T11:03:09.937Z,63.69
2023-05-02T11:05:40.183Z,62.40
2023-05-02T11:08:10.808Z,63.61
2023-05-02T11:10:41.405Z,64.47
2023-05-02T11:13:12.017Z,64.09
2023-05-02T11:15:42.685Z,64.20
2023-05-02T11:18:13.462Z,64.53
2023-05-02T11:20:43.828Z,65.54
2023-05-02T11:23:14.167Z,65.65
2023-05-02T11:25:44.831Z,66.36
2023-05-02T11:28:15.394Z,66.12
2023-05-02T11:30:45.692Z,65.81
2023-05-02T11:33:16.408Z,65.87
2023-05-02T11:35:46.526Z,66.16
2023-05-02T11:38:17.166Z,65.96
2023-05-02T11:40:47.741Z,65.76
2023-05-02T11:43:18.382Z,67.10
2023-05-02T11:45:48.987Z,66.90
2023-05-02T11:48:19.869Z,65.35
2023-05-02T11:50:50.764Z,64.05
2023-05-02T11:53:20.817Z,63.58
2023-05-02T11:55:51.426Z,63.32
2023-05-02T11:58:22.169Z,62.50
2023-05-02T12:00:52.657Z,62.47
2023-05-02T12:03:23.140Z,63.48
2023-05-02T12:05:53.576Z,62.15
2023-05-02T12:08:24.197Z,62.56
2023-05-02T12:10:54.728Z,62.97
2023-05-02T12:13:25.409Z,62.95
2023-05-02T12:15:56.151Z,62.56
2023-05-02T12:18:26.674Z,62.98
2023-05-02T12:20:57.132Z,61.69
2023-05-02T12:23:27.734Z,60.79
2023-05-02T12:25:58.364Z,61.80
2023-05-02T12:28:28.933Z,62.45
2023-05-02T12:30:59.539Z,62.06
2023-05-02T12:33:30.138Z,61.91
2023-05-02T12:36:00.745Z,63.15
2023-05-02T12:38:31.335Z,64.55
2023-05-02T12:41:01.910Z,62.91
2023-05-02T12:43:32.535Z,64.00
2023-05-02T12:46:03.147Z,63.64
2023-05-02T12:48:33.850Z,63.25
2023-05-02T12:51:04.248Z,65.15
2023-05-02T12:53:34.863Z,64.92
2023-05-02T12:56:05.526Z,64.98
2023-05-02T12:58:36.064Z,64.08
2023-05-02T13:01:06.667Z,63.90
2023-05-02T13:03:37.310Z,62.89
2023-05-02T13:06:07.853Z,63.71
2023-05-02T13:08:38.396Z,62.20
2023-05-02T13:11:08.994Z,62.40
2023-05-02T13:13:39.632Z,63.12
2023-05-02T13:16:10.213Z,62.83
2023-05-02T13:18:40.906Z,63.86
2023-05-02T13:21:11.343Z,63.96
2023-05-02T13:23:41.928Z,64.19
2023-05-02T13:26:12.610Z,64.66
2023-05-02T13:28:43.095Z,64.84
2023-05-02T13:31:13.823Z,65.35
2023-05-02T13:33:44.383Z,65.13
2023-05-02T13:36:14.856Z,65.30
2023-05-02T13:38:45.459Z,65.29
2023-05-02T13:41:16.028Z,64.95
2023-05-02T13:43:46.648Z,65.09
2023-05-02T13:46:17.212Z,64.91
2023-05-02T13:48:47.789Z,62.81
2023-05-02T13:51:18.347Z,63.57
2023-05-02T13:53:48.960Z,64.88
2023-05-02T13:56:19.524Z,63.38
2023-05-02T13:58:50.109Z,63.64
2023-05-02T14:01:20.715Z,64.27
2023-05-02T14:03:51.494Z,65.62
2023-05-02T14:06:21.961Z,65.45
2023-05-02T14:08:52.493Z,65.37
2023-05-02T14:11:23.071Z,66.30
2023-05-02T14:13:53.687Z,65.72
2023-05-02T14:16:24.311Z,65.65
2023-05-02T14:18:54.907Z,64.83
2023-05-02T14:21:25.694Z,63.85
2023-05-02T14:23:56.051Z,63.48
2023-05-02T14:26:26.639Z,63.58
2023-05-02T14:28:57.227Z,62.40
2023-05-02T14:31:27.859Z,62.47
2023-05-02T14:33:58.404Z,62.58
2023-05-02T14:36:28.951Z,62.79
2023-05-02T14:38:59.555Z,62.45
2023-05-02T14:41:30.127Z,63.50
2023-05-02T14:44:00.715Z,63.75
2023-05-02T14:46:31.354Z,64.45
2023-05-02T14:49:02.092Z,65.28
2023-05-02T14:51:32.433Z,65.20
2023-05-02T14:54:03.042Z,65.69
2023-05-02T14:56:33.710Z,66.19
2023-05-02T14:59:04.228Z,64.46
2023-05-02T15:01:34.917Z,64.71
2023-05-02T15:04:07.793Z,65.10
2023-05-02T15:06:36.538Z,64.50
2023-05-02T15:09:06.748Z,64.29
2023-05-02T15:11:37.178Z,63.37
2023-05-02T15:14:07.789Z,62.41
2023-05-02T15:16:38.387Z,63.47
2023-05-02T15:19:09.115Z,63.53
2023-05-02T15:21:39.521Z,64.68
2023-05-02T15:24:10.156Z,66.15
2023-05-02T15:26:40.570Z,67.06
2023-05-02T15:29:11.104Z,67.79
2023-05-02T15:31:41.790Z,67.93
2023-05-02T15:34:12.354Z,68.09
2023-05-02T15:36:43.034Z,68.92
2023-05-02T15:39:13.551Z,67.73
2023-05-02T15:41:44.162Z,66.66
2023-05-02T15:44:14.802Z,67.03
2023-05-02T15:46:45.545Z,67.75
2023-05-02T15:49:16.100Z,66.15
2023-05-02T15:51:46.598Z,65.95
2023-05-02T15:54:17.317Z,64.40
2023-05-02T15:56:47.791Z,64.57
2023-05-02T15:59:18.415Z,63.75
2023-05-02T16:01:49.022Z,63.92
2023-05-02T16:04:19.755Z,63.85
2023-05-02T16:06:50.283Z,65.10
2023-05-02T16:09:20.795Z,65.27
2023-05-02T16:11:51.447Z,65.93
2023-05-02T16:14:22.149Z,66.42
2023-05-02T16:16:52.551Z,66.19
2023-05-02T16:19:23.175Z,66.09
2023-05-02T16:21:53.719Z,65.54
2023-05-02T16:24:24.398Z,65.66
2023-05-02T16:26:55.022Z,65.54
2023-05-02T16:29:25.548Z,65.37
2023-05-02T16:31:56.198Z,65.69
2023-05-02T16:34:26.950Z,65.90
2023-05-02T16:36:57.403Z,65.86
2023-05-02T16:39:28.115Z,65.76
2023-05-02T16:41:58.649Z,65.54
2023-05-02T16:44:29.269Z,69.16
2023-05-02T16:47:00.064Z,70.90
2023-05-02T16:49:30.643Z,71.12
2023-05-02T16:52:01.111Z,72.44
2023-05-02T16:54:31.738Z,72.27
2023-05-02T16:57:02.415Z,72.59
2023-05-02T16:59:32.966Z,72.79
2023-05-02T17:02:03.614Z,73.23
2023-05-02T17:04:34.360Z,73.56
2023-05-02T17:07:04.860Z,73.74
2023-05-02T17:09:35.257Z,72.27
2023-05-02T17:12:05.297Z,72.05
2023-05-02T17:14:35.795Z,72.27
2023-05-02T17:17:06.480Z,72.16
2023-05-02T17:19:37.198Z,73.28
2023-05-02T17:22:07.615Z,71.82
2023-05-02T17:24:38.323Z,72.41
2023-05-02T17:27:08.780Z,72.84
2023-05-02T17:29:39.552Z,73.87
2023-05-02T17:32:10.003Z,74.05
2023-05-02T17:34:40.677Z,73.11
2023-05-02T17:37:11.244Z,72.78
2023-05-02T17:39:42.056Z,73.24
2023-05-02T17:42:12.482Z,72.52
2023-05-02T17:44:43.119Z,72.38
2023-05-02T17:47:13.734Z,71.81
2023-05-02T17:49:44.378Z,71.95
2023-05-02T17:52:14.983Z,72.88
2023-05-02T17:54:45.628Z,72.68
2023-05-02T17:57:16.353Z,73.00
2023-05-02T17:59:46.907Z,72.81
2023-05-02T18:02:17.545Z,73.60
2023-05-02T18:04:48.198Z,73.36
2023-05-02T18:07:18.824Z,73.54
2023-05-02T18:09:49.629Z,73.63
2023-05-02T18:12:20.152Z,73.11
2023-05-02T18:14:50.767Z,73.73
2023-05-02T18:17:21.563Z,72.95
2023-05-02T18:19:52.168Z,73.05
2023-05-02T18:22:22.689Z,72.94
2023-05-02T18:24:53.533Z,73.05
2023-05-02T18:27:24.019Z,72.98
2023-05-02T18:29:54.676Z,73.16
2023-05-02T18:32:25.433Z,73.15
2023-05-02T18:34:56.091Z,73.28
2023-05-02T18:37:26.611Z,73.69
2023-05-02T18:39:57.391Z,73.86
2023-05-02T18:42:27.920Z,73.59
2023-05-02T18:44:58.591Z,73.90
2023-05-02T18:47:29.249Z,73.42
2023-05-02T18:49:59.954Z,73.89
2023-05-02T18:52:30.636Z,73.71
2023-05-02T18:55:01.421Z,74.21
2023-05-02T18:57:31.851Z,73.79
2023-05-02T19:00:02.517Z,73.91
2023-05-02T19:02:33.230Z,74.37
2023-05-02T19:05:04.028Z,74.17
2023-05-02T19:07:36.206Z,74.50
2023-05-02T19:10:05.126Z,74.78
2023-05-02T19:12:35.807Z,74.76
2023-05-02T19:15:06.648Z,74.93
2023-05-02T19:17:37.105Z,74.92
2023-05-02T19:20:07.808Z,75.26
2023-05-02T19:22:38.430Z,74.75
2023-05-02T19:25:09.196Z,74.87
2023-05-02T19:27:40.610Z,74.94
2023-05-02T19:30:10.426Z,74.92
2023-05-02T19:32:41.083Z,74.69
2023-05-02T19:35:11.748Z,74.78
2023-05-02T19:37:42.385Z,74.92
2023-05-02T19:40:13.077Z,75.12
2023-05-02T19:42:43.810Z,75.78
2023-05-02T19:45:14.434Z,75.52
2023-05-02T19:47:45.149Z,75.97
2023-05-02T19:50:15.786Z,76.30
2023-05-02T19:52:46.447Z,76.80
2023-05-02T19:55:17.148Z,77.36
2023-05-02T19:57:47.869Z,77.76
2023-05-02T20:00:18.555Z,77.52
2023-05-02T20:02:51.227Z,77.36
2023-05-02T20:05:19.990Z,77.51
2023-05-02T20:07:50.661Z,77.27
2023-05-02T20:10:21.474Z,77.46
2023-05-02T20:12:52.110Z,77.10
2023-05-02T20:15:22.780Z,76.95
2023-05-02T20:17:53.511Z,76.69
2023-05-02T20:20:24.166Z,76.71
2023-05-02T20:22:54.872Z,76.57
2023-05-02T20:25:25.548Z,76.29
2023-05-02T20:27:56.289Z,76.29
2023-05-02T20:30:26.943Z,75.98
2023-05-02T20:33:07.011Z,75.78
2023-05-02T20:35:28.332Z,75.71
2023-05-02T20:37:58.990Z,75.67
2023-05-02T20:40:29.698Z,75.67
2023-05-02T20:43:00.497Z,75.61
2023-05-02T20:45:31.098Z,75.74
2023-05-02T20:48:01.999Z,75.82
2023-05-02T20:50:32.499Z,75.60
2023-05-02T20:53:03.161Z,75.44
2023-05-02T20:55:33.969Z,75.33
2023-05-02T20:58:04.616Z,75.47
2023-05-02T21:00:35.254Z,75.76
2023-05-02T21:03:05.981Z,75.63
2023-05-02T21:05:36.654Z,75.46
2023-05-02T21:08:07.317Z,75.41
2023-05-02T21:10:38.033Z,75.42
2023-05-02T21:13:08.694Z,75.38
2023-05-02T21:15:39.577Z,75.06
2023-05-02T21:18:10.235Z,75.19
2023-05-02T21:20:41.001Z,74.94
2023-05-02T21:23:11.528Z,75.03
2023-05-02T21:25:42.187Z,74.97
2023-05-02T21:28:12.866Z,75.08
2023-05-02T21:30:43.602Z,74.96
2023-05-02T21:33:14.278Z,74.82
2023-05-02T21:35:45.010Z,74.93
2023-05-02T21:38:15.746Z,75.34
2023-05-02T21:40:46.420Z,75.43
2023-05-02T21:43:17.239Z,75.30
2023-05-02T21:45:47.830Z,75.11
2023-05-02T21:48:18.538Z,75.17
2023-05-02T21:50:49.259Z,74.87
2023-05-02T21:53:19.958Z,74.84
2023-05-02T21:55:50.703Z,74.94
2023-05-02T21:58:21.506Z,75.25
2023-05-02T22:00:52.191Z,75.39
2023-05-02T22:03:22.892Z,75.80
2023-05-02T22:05:53.584Z,75.60
2023-05-02T22:08:24.300Z,75.99
2023-05-02T22:10:55.191Z,76.03
2023-05-02T22:13:25.813Z,75.68
2023-05-02T22:15:56.486Z,75.79
2023-05-02T22:18:27.205Z,76.42
2023-05-02T22:20:57.956Z,77.10
2023-05-02T22:23:28.666Z,77.04
2023-05-02T22:25:59.138Z,84.77
2023-05-02T22:28:29.863Z,79.80
2023-05-02T22:31:00.600Z,78.36
2023-05-02T22:33:31.319Z,77.41
2023-05-02T22:36:02.097Z,77.14
2023-05-02T22:38:32.863Z,76.90
2023-05-02T22:41:03.545Z,76.91
2023-05-02T22:43:34.261Z,76.48
2023-05-02T22:46:05.097Z,77.22
2023-05-02T22:48:35.749Z,77.63
2023-05-02T22:51:06.524Z,77.29
2023-05-02T22:53:37.246Z,77.75
2023-05-02T22:56:08.182Z,77.45
2023-05-02T22:58:38.753Z,77.22
2023-05-02T23:01:09.587Z,77.39
2023-05-02T23:03:40.457Z,77.45
2023-05-02T23:06:11.084Z,78.65
2023-05-02T23:08:41.796Z,79.24
2023-05-02T23:11:12.738Z,79.03
2023-05-02T23:13:43.355Z,78.52
2023-05-02T23:16:14.136Z,78.64
2023-05-02T23:18:44.820Z,79.40
2023-05-02T23:21:15.623Z,79.07
2023-05-02T23:23:46.353Z,79.45
2023-05-02T23:26:17.148Z,79.28
2023-05-02T23:28:47.925Z,79.35
2023-05-02T23:31:18.730Z,78.71
2023-05-02T23:33:49.495Z,79.08
2023-05-02T23:36:20.315Z,78.66
2023-05-02T23:38:51.088Z,78.56
2023-05-02T23:41:21.942Z,79.30
2023-05-02T23:43:52.754Z,79.07
2023-05-02T23:46:23.677Z,79.17
2023-05-02T23:48:54.530Z,79.30
2023-05-02T23:51:24.582Z,79.60
2023-05-02T23:53:54.776Z,79.77
2023-05-02T23:56:24.943Z,80.04
2023-05-02T23:58:55.021Z,79.58
